Ansonville, North Carolina
Current Conditions -  °F | °C
As of 10:55 PM on Tuesday 21 Oct 2014 (Local Time) from KAFP Reporting Station
Overcast Overcast  
Wind Chill: 60°   Ceiling: 7000
Heat Index: 60°   Visibility: 10mi
Dew Point: 40°   Wind: 8mph
Humidity: 47%   Direction: 320°NW
Pressure: 29.97"   Gusts: NA
Location:  35.1°N, 80.11°W
Report Text: KAFP 220255Z AUTO 32007KT 10SM OVC070 16/05 A2997 RMK AO2 T01580045
Loading
Personal Weather Stations






























Interactive Weather Map
Tropical Storm Tracking
New forecast layout! Learn more

10-Day Weather Forecast

Advertisements
Track Severe Weather on mobile